sensor_id;sensor_type;location;lat;lon;timestamp;P1;durP1;ratioP1;P2;durP2;ratioP2
65665;SDS011;52365;47.464;18.976;2023-08-06T00:00:20;9.20;;;6.40;;
65665;SDS011;52365;47.464;18.976;2023-08-06T00:00:41;10.05;;;6.30;;
65665;SDS011;52365;47.464;18.976;2023-08-06T00:01:02;10.85;;;6.60;;
65665;SDS011;52365;47.464;18.976;2023-08-06T00:01:23;9.63;;;6.82;;
65665;SDS011;52365;47.464;18.976;2023-08-06T00:01:46;10.57;;;6.50;;
65665;SDS011;52365;47.464;18.976;2023-08-06T00:02:06;10.60;;;7.10;;
65665;SDS011;52365;47.464;18.976;2023-08-06T00:02:27;11.05;;;6.70;;
65665;SDS011;52365;47.464;18.976;2023-08-06T00:02:48;10.13;;;6.62;;
65665;SDS011;52365;47.464;18.976;2023-08-06T00:03:10;14.10;;;7.37;;
65665;SDS011;52365;47.464;18.976;2023-08-06T00:03:31;12.35;;;7.12;;
65665;SDS011;52365;47.464;18.976;2023-08-06T00:03:52;11.98;;;6.90;;
65665;SDS011;52365;47.464;18.976;2023-08-06T00:04:13;10.20;;;6.80;;
65665;SDS011;52365;47.464;18.976;2023-08-06T00:04:34;11.88;;;6.95;;
65665;SDS011;52365;47.464;18.976;2023-08-06T00:04:55;10.98;;;7.05;;
65665;SDS011;52365;47.464;18.976;2023-08-06T00:05:16;10.60;;;7.20;;
65665;SDS011;52365;47.464;18.976;2023-08-06T00:05:42;10.52;;;6.68;;
65665;SDS011;52365;47.464;18.976;2023-08-06T00:06:06;11.05;;;6.87;;
65665;SDS011;52365;47.464;18.976;2023-08-06T00:06:27;12.60;;;7.03;;
65665;SDS011;52365;47.464;18.976;2023-08-06T00:06:48;10.73;;;7.07;;
65665;SDS011;52365;47.464;18.976;2023-08-06T00:07:09;10.95;;;6.55;;
65665;SDS011;52365;47.464;18.976;2023-08-06T00:07:30;10.75;;;6.57;;
65665;SDS011;52365;47.464;18.976;2023-08-06T00:07:51;10.65;;;6.75;;
65665;SDS011;52365;47.464;18.976;2023-08-06T00:08:12;9.40;;;6.18;;
65665;SDS011;52365;47.464;18.976;2023-08-06T00:08:33;10.05;;;6.20;;
65665;SDS011;52365;47.464;18.976;2023-08-06T00:08:54;9.90;;;6.45;;
65665;SDS011;52365;47.464;18.976;2023-08-06T00:09:15;10.57;;;6.50;;
65665;SDS011;52365;47.464;18.976;2023-08-06T00:09:36;10.32;;;6.30;;
65665;SDS011;52365;47.464;18.976;2023-08-06T00:09:52;9.88;;;6.22;;
65665;SDS011;52365;47.464;18.976;2023-08-06T00:10:13;10.35;;;6.20;;
65665;SDS011;52365;47.464;18.976;2023-08-06T00:10:34;9.05;;;6.03;;
65665;SDS011;52365;47.464;18.976;2023-08-06T00:10:55;8.32;;;5.82;;
65665;SDS011;52365;47.464;18.976;2023-08-06T00:11:16;8.50;;;5.80;;
65665;SDS011;52365;47.464;18.976;2023-08-06T00:11:37;8.73;;;5.50;;
65665;SDS011;52365;47.464;18.976;2023-08-06T00:11:58;11.10;;;5.87;;
65665;SDS011;52365;47.464;18.976;2023-08-06T00:12:19;9.27;;;6.05;;
65665;SDS011;52365;47.464;18.976;2023-08-06T00:12:40;8.68;;;6.10;;
65665;SDS011;52365;47.464;18.976;2023-08-06T00:13:01;11.40;;;6.45;;
65665;SDS011;52365;47.464;18.976;2023-08-06T00:13:22;8.70;;;6.20;;
65665;SDS011;52365;47.464;18.976;2023-08-06T00:13:43;8.95;;;5.85;;
65665;SDS011;52365;47.464;18.976;2023-08-06T00:14:04;9.05;;;5.72;;
65665;SDS011;52365;47.464;18.976;2023-08-06T00:14:25;9.40;;;5.55;;
65665;SDS011;52365;47.464;18.976;2023-08-06T00:14:50;11.30;;;5.72;;
65665;SDS011;52365;47.464;18.976;2023-08-06T00:15:11;9.25;;;5.85;;
65665;SDS011;52365;47.464;18.976;2023-08-06T00:15:32;10.18;;;5.90;;
65665;SDS011;52365;47.464;18.976;2023-08-06T00:15:53;10.80;;;5.82;;
65665;SDS011;52365;47.464;18.976;2023-08-06T00:16:14;8.27;;;5.50;;
65665;SDS011;52365;47.464;18.976;2023-08-06T00:16:35;8.95;;;5.72;;
65665;SDS011;52365;47.464;18.976;2023-08-06T00:16:56;9.13;;;5.72;;
65665;SDS011;52365;47.464;18.976;2023-08-06T00:17:17;9.02;;;5.50;;
65665;SDS011;52365;47.464;18.976;2023-08-06T00:17:38;7.97;;;5.53;;
65665;SDS011;52365;47.464;18.976;2023-08-06T00:17:59;8.40;;;5.78;;
65665;SDS011;52365;47.464;18.976;2023-08-06T00:18:20;10.00;;;5.90;;
65665;SDS011;52365;47.464;18.976;2023-08-06T00:18:41;9.10;;;5.75;;
65665;SDS011;52365;47.464;18.976;2023-08-06T00:19:03;8.50;;;5.35;;
65665;SDS011;52365;47.464;18.976;2023-08-06T00:19:24;8.02;;;5.62;;
65665;SDS011;52365;47.464;18.976;2023-08-06T00:19:45;7.90;;;5.50;;
65665;SDS011;52365;47.464;18.976;2023-08-06T00:20:06;7.55;;;5.37;;
65665;SDS011;52365;47.464;18.976;2023-08-06T00:20:27;7.50;;;5.55;;
65665;SDS011;52365;47.464;18.976;2023-08-06T00:20:48;7.80;;;5.78;;
65665;SDS011;52365;47.464;18.976;2023-08-06T00:21:04;9.23;;;5.80;;
65665;SDS011;52365;47.464;18.976;2023-08-06T00:21:26;8.48;;;5.72;;
65665;SDS011;52365;47.464;18.976;2023-08-06T00:21:47;7.85;;;5.40;;
65665;SDS011;52365;47.464;18.976;2023-08-06T00:22:08;7.68;;;5.40;;
65665;SDS011;52365;47.464;18.976;2023-08-06T00:22:29;8.98;;;5.40;;
65665;SDS011;52365;47.464;18.976;2023-08-06T00:22:50;8.00;;;5.53;;
65665;SDS011;52365;47.464;18.976;2023-08-06T00:23:11;7.32;;;5.80;;
65665;SDS011;52365;47.464;18.976;2023-08-06T00:23:31;8.27;;;5.35;;
65665;SDS011;52365;47.464;18.976;2023-08-06T00:23:52;9.00;;;5.55;;
65665;SDS011;52365;47.464;18.976;2023-08-06T00:24:13;8.20;;;5.60;;
65665;SDS011;52365;47.464;18.976;2023-08-06T00:24:35;8.98;;;5.62;;
65665;SDS011;52365;47.464;18.976;2023-08-06T00:24:56;9.00;;;5.80;;
65665;SDS011;52365;47.464;18.976;2023-08-06T00:25:18;7.40;;;5.53;;
65665;SDS011;52365;47.464;18.976;2023-08-06T00:25:39;8.10;;;5.72;;
65665;SDS011;52365;47.464;18.976;2023-08-06T00:26:00;9.20;;;5.80;;
65665;SDS011;52365;47.464;18.976;2023-08-06T00:26:21;9.88;;;5.80;;
65665;SDS011;52365;47.464;18.976;2023-08-06T00:26:42;8.25;;;5.72;;
65665;SDS011;52365;47.464;18.976;2023-08-06T00:27:03;8.45;;;5.68;;
65665;SDS011;52365;47.464;18.976;2023-08-06T00:27:24;12.18;;;6.05;;
65665;SDS011;52365;47.464;18.976;2023-08-06T00:27:45;8.50;;;5.75;;
65665;SDS011;52365;47.464;18.976;2023-08-06T00:28:06;8.00;;;5.60;;
65665;SDS011;52365;47.464;18.976;2023-08-06T00:28:27;7.57;;;5.57;;
65665;SDS011;52365;47.464;18.976;2023-08-06T00:28:48;8.52;;;5.78;;
65665;SDS011;52365;47.464;18.976;2023-08-06T00:29:09;7.28;;;5.60;;
65665;SDS011;52365;47.464;18.976;2023-08-06T00:29:30;8.25;;;5.60;;
65665;SDS011;52365;47.464;18.976;2023-08-06T00:29:51;8.90;;;5.47;;
65665;SDS011;52365;47.464;18.976;2023-08-06T00:30:13;8.38;;;5.68;;
65665;SDS011;52365;47.464;18.976;2023-08-06T00:30:34;7.28;;;5.72;;
65665;SDS011;52365;47.464;18.976;2023-08-06T00:30:55;7.85;;;5.97;;
65665;SDS011;52365;47.464;18.976;2023-08-06T00:31:17;8.18;;;5.60;;
65665;SDS011;52365;47.464;18.976;2023-08-06T00:31:38;7.87;;;5.47;;
65665;SDS011;52365;47.464;18.976;2023-08-06T00:31:59;8.25;;;5.90;;
65665;SDS011;52365;47.464;18.976;2023-08-06T00:32:19;7.03;;;5.55;;
65665;SDS011;52365;47.464;18.976;2023-08-06T00:32:42;10.48;;;5.78;;
65665;SDS011;52365;47.464;18.976;2023-08-06T00:33:03;9.95;;;5.53;;
65665;SDS011;52365;47.464;18.976;2023-08-06T00:33:24;8.77;;;5.47;;
65665;SDS011;52365;47.464;18.976;2023-08-06T00:33:45;10.77;;;5.97;;
65665;SDS011;52365;47.464;18.976;2023-08-06T00:34:06;9.45;;;5.70;;
65665;SDS011;52365;47.464;18.976;2023-08-06T00:34:27;7.93;;;5.12;;
65665;SDS011;52365;47.464;18.976;2023-08-06T00:34:48;7.22;;;5.12;;
65665;SDS011;52365;47.464;18.976;2023-08-06T00:35:11;8.70;;;5.40;;
65665;SDS011;52365;47.464;18.976;2023-08-06T00:35:34;7.78;;;5.28;;
65665;SDS011;52365;47.464;18.976;2023-08-06T00:35:55;7.97;;;5.35;;
65665;SDS011;52365;47.464;18.976;2023-08-06T00:36:16;7.95;;;5.47;;
65665;SDS011;52365;47.464;18.976;2023-08-06T00:36:37;7.68;;;5.78;;
65665;SDS011;52365;47.464;18.976;2023-08-06T00:36:57;8.48;;;5.65;;
65665;SDS011;52365;47.464;18.976;2023-08-06T00:37:18;7.15;;;5.30;;
65665;SDS011;52365;47.464;18.976;2023-08-06T00:37:39;7.82;;;5.37;;
65665;SDS011;52365;47.464;18.976;2023-08-06T00:38:01;8.15;;;5.70;;
65665;SDS011;52365;47.464;18.976;2023-08-06T00:38:23;9.65;;;5.47;;
65665;SDS011;52365;47.464;18.976;2023-08-06T00:38:44;8.60;;;5.45;;
65665;SDS011;52365;47.464;18.976;2023-08-06T00:39:05;9.70;;;5.85;;
65665;SDS011;52365;47.464;18.976;2023-08-06T00:39:27;8.80;;;5.90;;
65665;SDS011;52365;47.464;18.976;2023-08-06T00:39:48;7.80;;;5.47;;
65665;SDS011;52365;47.464;18.976;2023-08-06T00:40:09;9.43;;;5.65;;
65665;SDS011;52365;47.464;18.976;2023-08-06T00:40:30;9.02;;;6.05;;
65665;SDS011;52365;47.464;18.976;2023-08-06T00:40:51;8.73;;;6.00;;
65665;SDS011;52365;47.464;18.976;2023-08-06T00:41:12;8.30;;;6.05;;
65665;SDS011;52365;47.464;18.976;2023-08-06T00:41:33;7.28;;;5.70;;
65665;SDS011;52365;47.464;18.976;2023-08-06T00:41:54;8.73;;;6.03;;
65665;SDS011;52365;47.464;18.976;2023-08-06T00:42:15;7.97;;;6.20;;
65665;SDS011;52365;47.464;18.976;2023-08-06T00:42:41;9.73;;;6.43;;
65665;SDS011;52365;47.464;18.976;2023-08-06T00:43:02;9.13;;;6.22;;
65665;SDS011;52365;47.464;18.976;2023-08-06T00:43:23;10.63;;;6.53;;
65665;SDS011;52365;47.464;18.976;2023-08-06T00:43:44;9.60;;;6.47;;
65665;SDS011;52365;47.464;18.976;2023-08-06T00:44:05;8.50;;;5.87;;
65665;SDS011;52365;47.464;18.976;2023-08-06T00:44:25;8.73;;;6.03;;
65665;SDS011;52365;47.464;18.976;2023-08-06T00:44:46;8.43;;;5.85;;
65665;SDS011;52365;47.464;18.976;2023-08-06T00:45:08;9.52;;;6.47;;
65665;SDS011;52365;47.464;18.976;2023-08-06T00:45:29;9.75;;;6.43;;
65665;SDS011;52365;47.464;18.976;2023-08-06T00:45:50;8.38;;;5.82;;
65665;SDS011;52365;47.464;18.976;2023-08-06T00:46:11;8.25;;;6.12;;
65665;SDS011;52365;47.464;18.976;2023-08-06T00:46:32;8.48;;;6.28;;
65665;SDS011;52365;47.464;18.976;2023-08-06T00:46:54;8.60;;;5.90;;
65665;SDS011;52365;47.464;18.976;2023-08-06T00:47:16;8.52;;;6.05;;
65665;SDS011;52365;47.464;18.976;2023-08-06T00:47:37;8.20;;;5.93;;
65665;SDS011;52365;47.464;18.976;2023-08-06T00:48:00;8.43;;;5.80;;
65665;SDS011;52365;47.464;18.976;2023-08-06T00:48:21;8.32;;;5.72;;
65665;SDS011;52365;47.464;18.976;2023-08-06T00:48:42;8.80;;;6.10;;
65665;SDS011;52365;47.464;18.976;2023-08-06T00:49:04;9.45;;;5.80;;
65665;SDS011;52365;47.464;18.976;2023-08-06T00:49:25;7.82;;;5.40;;
65665;SDS011;52365;47.464;18.976;2023-08-06T00:49:46;7.97;;;5.30;;
65665;SDS011;52365;47.464;18.976;2023-08-06T00:50:07;7.40;;;5.20;;
65665;SDS011;52365;47.464;18.976;2023-08-06T00:50:29;8.00;;;5.40;;
65665;SDS011;52365;47.464;18.976;2023-08-06T00:50:50;7.60;;;5.45;;
65665;SDS011;52365;47.464;18.976;2023-08-06T00:51:11;9.18;;;5.53;;
65665;SDS011;52365;47.464;18.976;2023-08-06T00:51:32;7.62;;;5.10;;
65665;SDS011;52365;47.464;18.976;2023-08-06T00:51:54;6.18;;;4.97;;
65665;SDS011;52365;47.464;18.976;2023-08-06T00:52:16;7.80;;;5.25;;
65665;SDS011;52365;47.464;18.976;2023-08-06T00:52:38;7.10;;;4.82;;
65665;SDS011;52365;47.464;18.976;2023-08-06T00:52:59;6.93;;;4.97;;
65665;SDS011;52365;47.464;18.976;2023-08-06T00:53:20;7.32;;;5.00;;
65665;SDS011;52365;47.464;18.976;2023-08-06T00:53:41;6.90;;;5.05;;
65665;SDS011;52365;47.464;18.976;2023-08-06T00:54:03;6.90;;;5.20;;
65665;SDS011;52365;47.464;18.976;2023-08-06T00:54:24;6.72;;;5.12;;
65665;SDS011;52365;47.464;18.976;2023-08-06T00:54:47;6.97;;;4.60;;
65665;SDS011;52365;47.464;18.976;2023-08-06T00:55:08;6.62;;;4.28;;
65665;SDS011;52365;47.464;18.976;2023-08-06T00:55:29;6.40;;;4.30;;
65665;SDS011;52365;47.464;18.976;2023-08-06T00:55:50;7.43;;;4.70;;
65665;SDS011;52365;47.464;18.976;2023-08-06T00:56:11;6.45;;;4.70;;
65665;SDS011;52365;47.464;18.976;2023-08-06T00:56:34;5.93;;;4.25;;
65665;SDS011;52365;47.464;18.976;2023-08-06T00:56:56;6.03;;;4.40;;
65665;SDS011;52365;47.464;18.976;2023-08-06T00:57:18;5.97;;;4.12;;
65665;SDS011;52365;47.464;18.976;2023-08-06T00:57:41;7.00;;;4.68;;
65665;SDS011;52365;47.464;18.976;2023-08-06T00:58:02;6.47;;;4.55;;
65665;SDS011;52365;47.464;18.976;2023-08-06T00:58:23;5.57;;;4.20;;
65665;SDS011;52365;47.464;18.976;2023-08-06T00:58:45;5.60;;;4.20;;
65665;SDS011;52365;47.464;18.976;2023-08-06T00:59:07;5.30;;;4.20;;
65665;SDS011;52365;47.464;18.976;2023-08-06T00:59:28;6.50;;;4.45;;
65665;SDS011;52365;47.464;18.976;2023-08-06T00:59:51;6.22;;;3.87;;
65665;SDS011;52365;47.464;18.976;2023-08-06T01:00:14;6.22;;;3.97;;
65665;SDS011;52365;47.464;18.976;2023-08-06T01:00:35;6.65;;;4.05;;
65665;SDS011;52365;47.464;18.976;2023-08-06T01:00:56;5.72;;;3.97;;
65665;SDS011;52365;47.464;18.976;2023-08-06T01:01:17;5.95;;;4.20;;
65665;SDS011;52365;47.464;18.976;2023-08-06T01:01:38;6.37;;;4.15;;
65665;SDS011;52365;47.464;18.976;2023-08-06T01:01:59;6.60;;;4.18;;
65665;SDS011;52365;47.464;18.976;2023-08-06T01:02:20;8.75;;;4.50;;
65665;SDS011;52365;47.464;18.976;2023-08-06T01:02:41;7.25;;;4.20;;
65665;SDS011;52365;47.464;18.976;2023-08-06T01:03:02;5.45;;;4.18;;
65665;SDS011;52365;47.464;18.976;2023-08-06T01:03:23;4.78;;;3.97;;
65665;SDS011;52365;47.464;18.976;2023-08-06T01:03:44;5.43;;;4.07;;
65665;SDS011;52365;47.464;18.976;2023-08-06T01:04:05;6.03;;;4.00;;
65665;SDS011;52365;47.464;18.976;2023-08-06T01:04:22;6.07;;;3.80;;
65665;SDS011;52365;47.464;18.976;2023-08-06T01:04:44;6.72;;;3.90;;
65665;SDS011;52365;47.464;18.976;2023-08-06T01:05:05;6.90;;;4.10;;
65665;SDS011;52365;47.464;18.976;2023-08-06T01:05:26;7.72;;;4.55;;
65665;SDS011;52365;47.464;18.976;2023-08-06T01:05:47;8.57;;;4.50;;
65665;SDS011;52365;47.464;18.976;2023-08-06T01:06:08;6.10;;;4.20;;
65665;SDS011;52365;47.464;18.976;2023-08-06T01:06:35;4.97;;;3.50;;
65665;SDS011;52365;47.464;18.976;2023-08-06T01:07:02;4.47;;;3.40;;
65665;SDS011;52365;47.464;18.976;2023-08-06T01:07:37;4.68;;;3.37;;
65665;SDS011;52365;47.464;18.976;2023-08-06T01:08:43;5.65;;;3.62;;
65665;SDS011;52365;47.464;18.976;2023-08-06T01:11:27;3.97;;;3.00;;
65665;SDS011;52365;47.464;18.976;2023-08-06T01:12:09;3.70;;;2.85;;
65665;SDS011;52365;47.464;18.976;2023-08-06T01:13:45;5.28;;;3.22;;
65665;SDS011;52365;47.464;18.976;2023-08-06T01:14:24;4.60;;;3.28;;
65665;SDS011;52365;47.464;18.976;2023-08-06T01:14:57;4.80;;;3.40;;
65665;SDS011;52365;47.464;18.976;2023-08-06T01:15:28;4.87;;;3.60;;
65665;SDS011;52365;47.464;18.976;2023-08-06T01:15:54;8.43;;;3.87;;
65665;SDS011;52365;47.464;18.976;2023-08-06T01:16:20;4.90;;;3.53;;
65665;SDS011;52365;47.464;18.976;2023-08-06T01:16:41;5.60;;;3.87;;
65665;SDS011;52365;47.464;18.976;2023-08-06T01:17:02;6.50;;;3.92;;
65665;SDS011;52365;47.464;18.976;2023-08-06T01:17:25;6.35;;;4.00;;
65665;SDS011;52365;47.464;18.976;2023-08-06T01:17:47;5.60;;;4.03;;
65665;SDS011;52365;47.464;18.976;2023-08-06T01:18:09;4.82;;;3.72;;
65665;SDS011;52365;47.464;18.976;2023-08-06T01:18:31;5.12;;;3.70;;
65665;SDS011;52365;47.464;18.976;2023-08-06T01:18:52;4.47;;;3.30;;
65665;SDS011;52365;47.464;18.976;2023-08-06T01:19:17;4.32;;;3.22;;
65665;SDS011;52365;47.464;18.976;2023-08-06T01:19:38;5.25;;;3.50;;
65665;SDS011;52365;47.464;18.976;2023-08-06T01:19:59;4.25;;;3.28;;
65665;SDS011;52365;47.464;18.976;2023-08-06T01:20:20;5.80;;;3.40;;
65665;SDS011;52365;47.464;18.976;2023-08-06T01:20:42;5.32;;;3.45;;
65665;SDS011;52365;47.464;18.976;2023-08-06T01:21:03;4.37;;;3.17;;
65665;SDS011;52365;47.464;18.976;2023-08-06T01:21:24;5.45;;;2.92;;
65665;SDS011;52365;47.464;18.976;2023-08-06T01:21:45;5.70;;;3.20;;
65665;SDS011;52365;47.464;18.976;2023-08-06T01:22:06;3.65;;;3.10;;
65665;SDS011;52365;47.464;18.976;2023-08-06T01:22:27;4.18;;;3.28;;
65665;SDS011;52365;47.464;18.976;2023-08-06T01:22:48;5.25;;;3.40;;
65665;SDS011;52365;47.464;18.976;2023-08-06T01:23:09;5.50;;;3.25;;
65665;SDS011;52365;47.464;18.976;2023-08-06T01:23:30;4.87;;;3.03;;
65665;SDS011;52365;47.464;18.976;2023-08-06T01:23:51;4.10;;;3.10;;
65665;SDS011;52365;47.464;18.976;2023-08-06T01:24:12;4.50;;;3.00;;
65665;SDS011;52365;47.464;18.976;2023-08-06T01:24:33;3.78;;;2.85;;
65665;SDS011;52365;47.464;18.976;2023-08-06T01:24:54;4.57;;;2.90;;
65665;SDS011;52365;47.464;18.976;2023-08-06T01:25:16;4.10;;;2.83;;
65665;SDS011;52365;47.464;18.976;2023-08-06T01:26:39;4.15;;;3.05;;
65665;SDS011;52365;47.464;18.976;2023-08-06T01:28:11;3.70;;;2.70;;
65665;SDS011;52365;47.464;18.976;2023-08-06T01:28:52;4.32;;;3.00;;
65665;SDS011;52365;47.464;18.976;2023-08-06T01:29:59;3.30;;;2.70;;
65665;SDS011;52365;47.464;18.976;2023-08-06T01:30:29;5.18;;;2.87;;
65665;SDS011;52365;47.464;18.976;2023-08-06T01:30:56;3.15;;;2.70;;
65665;SDS011;52365;47.464;18.976;2023-08-06T01:31:24;3.65;;;2.75;;
65665;SDS011;52365;47.464;18.976;2023-08-06T01:31:57;4.50;;;2.70;;
65665;SDS011;52365;47.464;18.976;2023-08-06T01:32:19;3.53;;;2.78;;
65665;SDS011;52365;47.464;18.976;2023-08-06T01:32:45;3.72;;;3.12;;
65665;SDS011;52365;47.464;18.976;2023-08-06T01:33:10;3.95;;;2.70;;
65665;SDS011;52365;47.464;18.976;2023-08-06T01:33:37;4.03;;;2.60;;
65665;SDS011;52365;47.464;18.976;2023-08-06T01:34:05;4.40;;;3.00;;
65665;SDS011;52365;47.464;18.976;2023-08-06T01:34:30;3.65;;;2.80;;
65665;SDS011;52365;47.464;18.976;2023-08-06T01:34:53;3.67;;;2.60;;
65665;SDS011;52365;47.464;18.976;2023-08-06T01:35:15;3.87;;;2.65;;
65665;SDS011;52365;47.464;18.976;2023-08-06T01:35:38;4.20;;;2.80;;
65665;SDS011;52365;47.464;18.976;2023-08-06T01:35:59;4.72;;;3.00;;
65665;SDS011;52365;47.464;18.976;2023-08-06T01:36:21;4.78;;;2.80;;
65665;SDS011;52365;47.464;18.976;2023-08-06T01:36:43;4.15;;;3.10;;
65665;SDS011;52365;47.464;18.976;2023-08-06T01:37:05;4.47;;;3.28;;
65665;SDS011;52365;47.464;18.976;2023-08-06T01:37:27;3.60;;;3.00;;
65665;SDS011;52365;47.464;18.976;2023-08-06T01:37:49;4.05;;;3.00;;
65665;SDS011;52365;47.464;18.976;2023-08-06T01:38:10;4.80;;;3.20;;
65665;SDS011;52365;47.464;18.976;2023-08-06T01:38:31;5.05;;;3.35;;
65665;SDS011;52365;47.464;18.976;2023-08-06T01:38:53;4.82;;;3.47;;
65665;SDS011;52365;47.464;18.976;2023-08-06T01:39:14;5.40;;;3.30;;
65665;SDS011;52365;47.464;18.976;2023-08-06T01:39:35;5.20;;;3.33;;
65665;SDS011;52365;47.464;18.976;2023-08-06T01:39:56;4.25;;;3.20;;
65665;SDS011;52365;47.464;18.976;2023-08-06T01:40:18;5.07;;;3.40;;
65665;SDS011;52365;47.464;18.976;2023-08-06T01:40:39;4.85;;;3.33;;
65665;SDS011;52365;47.464;18.976;2023-08-06T01:41:00;4.40;;;3.37;;
65665;SDS011;52365;47.464;18.976;2023-08-06T01:41:21;4.53;;;3.50;;
65665;SDS011;52365;47.464;18.976;2023-08-06T01:41:42;5.12;;;3.30;;
65665;SDS011;52365;47.464;18.976;2023-08-06T01:42:03;5.30;;;3.53;;
65665;SDS011;52365;47.464;18.976;2023-08-06T01:42:24;4.87;;;3.33;;
65665;SDS011;52365;47.464;18.976;2023-08-06T01:42:45;5.22;;;3.37;;
65665;SDS011;52365;47.464;18.976;2023-08-06T01:43:06;4.65;;;3.50;;
65665;SDS011;52365;47.464;18.976;2023-08-06T01:43:27;4.55;;;3.70;;
65665;SDS011;52365;47.464;18.976;2023-08-06T01:43:48;5.40;;;3.67;;
65665;SDS011;52365;47.464;18.976;2023-08-06T01:44:09;4.85;;;3.40;;
65665;SDS011;52365;47.464;18.976;2023-08-06T01:44:30;5.00;;;3.42;;
65665;SDS011;52365;47.464;18.976;2023-08-06T01:44:51;5.53;;;3.80;;
65665;SDS011;52365;47.464;18.976;2023-08-06T01:45:12;5.90;;;3.97;;
65665;SDS011;52365;47.464;18.976;2023-08-06T01:45:33;5.78;;;4.03;;
65665;SDS011;52365;47.464;18.976;2023-08-06T01:45:54;5.37;;;3.90;;
65665;SDS011;52365;47.464;18.976;2023-08-06T01:46:15;6.35;;;3.97;;
65665;SDS011;52365;47.464;18.976;2023-08-06T01:46:36;6.12;;;4.28;;
65665;SDS011;52365;47.464;18.976;2023-08-06T01:46:57;5.72;;;4.50;;
65665;SDS011;52365;47.464;18.976;2023-08-06T01:47:18;6.53;;;4.30;;
65665;SDS011;52365;47.464;18.976;2023-08-06T01:47:39;7.00;;;3.92;;
65665;SDS011;52365;47.464;18.976;2023-08-06T01:48:00;6.70;;;4.20;;
65665;SDS011;52365;47.464;18.976;2023-08-06T01:48:21;5.37;;;4.15;;
65665;SDS011;52365;47.464;18.976;2023-08-06T01:48:42;4.82;;;3.83;;
65665;SDS011;52365;47.464;18.976;2023-08-06T01:49:03;5.55;;;3.60;;
65665;SDS011;52365;47.464;18.976;2023-08-06T01:49:24;7.03;;;3.92;;
65665;SDS011;52365;47.464;18.976;2023-08-06T01:49:45;7.72;;;4.30;;
65665;SDS011;52365;47.464;18.976;2023-08-06T01:50:06;5.18;;;4.05;;
65665;SDS011;52365;47.464;18.976;2023-08-06T01:50:27;5.60;;;4.12;;
65665;SDS011;52365;47.464;18.976;2023-08-06T01:50:48;5.47;;;3.90;;
65665;SDS011;52365;47.464;18.976;2023-08-06T01:51:09;6.00;;;4.10;;
65665;SDS011;52365;47.464;18.976;2023-08-06T01:51:30;6.10;;;4.28;;
65665;SDS011;52365;47.464;18.976;2023-08-06T01:51:51;5.97;;;4.30;;
65665;SDS011;52365;47.464;18.976;2023-08-06T01:52:12;5.30;;;3.87;;
65665;SDS011;52365;47.464;18.976;2023-08-06T01:52:33;5.30;;;4.12;;
65665;SDS011;52365;47.464;18.976;2023-08-06T01:52:54;4.93;;;4.10;;
65665;SDS011;52365;47.464;18.976;2023-08-06T01:53:15;4.65;;;3.92;;
65665;SDS011;52365;47.464;18.976;2023-08-06T01:53:36;4.90;;;3.90;;
65665;SDS011;52365;47.464;18.976;2023-08-06T01:53:57;5.62;;;4.15;;
65665;SDS011;52365;47.464;18.976;2023-08-06T01:54:18;5.70;;;4.10;;
65665;SDS011;52365;47.464;18.976;2023-08-06T01:54:39;6.07;;;4.00;;
65665;SDS011;52365;47.464;18.976;2023-08-06T01:55:00;5.35;;;3.87;;
65665;SDS011;52365;47.464;18.976;2023-08-06T01:55:21;5.35;;;4.15;;
65665;SDS011;52365;47.464;18.976;2023-08-06T01:55:42;4.97;;;4.05;;
65665;SDS011;52365;47.464;18.976;2023-08-06T01:56:08;5.20;;;4.37;;
65665;SDS011;52365;47.464;18.976;2023-08-06T01:56:28;5.47;;;4.20;;
65665;SDS011;52365;47.464;18.976;2023-08-06T01:56:49;5.55;;;4.40;;
65665;SDS011;52365;47.464;18.976;2023-08-06T01:57:10;6.03;;;4.37;;
65665;SDS011;52365;47.464;18.976;2023-08-06T01:57:31;7.22;;;4.40;;
65665;SDS011;52365;47.464;18.976;2023-08-06T01:57:53;6.50;;;4.10;;
65665;SDS011;52365;47.464;18.976;2023-08-06T01:58:14;6.07;;;4.28;;
65665;SDS011;52365;47.464;18.976;2023-08-06T01:58:35;6.57;;;4.28;;
65665;SDS011;52365;47.464;18.976;2023-08-06T01:58:56;6.45;;;4.37;;
65665;SDS011;52365;47.464;18.976;2023-08-06T01:59:17;6.93;;;4.32;;
65665;SDS011;52365;47.464;18.976;2023-08-06T01:59:38;6.33;;;4.20;;
65665;SDS011;52365;47.464;18.976;2023-08-06T01:59:59;6.18;;;4.25;;
65665;SDS011;52365;47.464;18.976;2023-08-06T02:00:20;6.70;;;4.40;;
65665;SDS011;52365;47.464;18.976;2023-08-06T02:00:41;6.30;;;4.20;;
65665;SDS011;52365;47.464;18.976;2023-08-06T02:01:02;5.90;;;4.15;;
65665;SDS011;52365;47.464;18.976;2023-08-06T02:01:23;6.10;;;4.40;;
65665;SDS011;52365;47.464;18.976;2023-08-06T02:01:44;6.20;;;4.43;;
65665;SDS011;52365;47.464;18.976;2023-08-06T02:02:05;7.90;;;4.50;;
65665;SDS011;52365;47.464;18.976;2023-08-06T02:02:26;9.50;;;4.57;;
65665;SDS011;52365;47.464;18.976;2023-08-06T02:02:47;7.05;;;4.30;;
65665;SDS011;52365;47.464;18.976;2023-08-06T02:03:08;8.02;;;4.47;;
65665;SDS011;52365;47.464;18.976;2023-08-06T02:03:29;7.85;;;4.32;;
65665;SDS011;52365;47.464;18.976;2023-08-06T02:03:50;6.15;;;4.25;;
65665;SDS011;52365;47.464;18.976;2023-08-06T02:04:11;6.22;;;4.32;;
65665;SDS011;52365;47.464;18.976;2023-08-06T02:04:32;6.20;;;4.22;;
65665;SDS011;52365;47.464;18.976;2023-08-06T02:04:53;5.65;;;4.35;;
65665;SDS011;52365;47.464;18.976;2023-08-06T02:05:14;6.50;;;4.40;;
65665;SDS011;52365;47.464;18.976;2023-08-06T02:05:35;6.68;;;4.20;;
65665;SDS011;52365;47.464;18.976;2023-08-06T02:05:56;6.07;;;4.20;;
65665;SDS011;52365;47.464;18.976;2023-08-06T02:06:17;7.68;;;4.32;;
65665;SDS011;52365;47.464;18.976;2023-08-06T02:06:38;7.37;;;4.50;;
65665;SDS011;52365;47.464;18.976;2023-08-06T02:06:59;6.30;;;4.50;;
65665;SDS011;52365;47.464;18.976;2023-08-06T02:07:20;7.05;;;4.75;;
65665;SDS011;52365;47.464;18.976;2023-08-06T02:07:41;6.35;;;4.62;;
65665;SDS011;52365;47.464;18.976;2023-08-06T02:08:02;6.65;;;4.45;;
65665;SDS011;52365;47.464;18.976;2023-08-06T02:08:23;6.05;;;4.43;;
65665;SDS011;52365;47.464;18.976;2023-08-06T02:08:44;5.43;;;4.22;;
65665;SDS011;52365;47.464;18.976;2023-08-06T02:09:05;5.40;;;4.35;;
65665;SDS011;52365;47.464;18.976;2023-08-06T02:09:26;5.62;;;4.37;;
65665;SDS011;52365;47.464;18.976;2023-08-06T02:09:47;6.25;;;4.32;;
65665;SDS011;52365;47.464;18.976;2023-08-06T02:10:08;6.53;;;4.55;;
65665;SDS011;52365;47.464;18.976;2023-08-06T02:10:29;6.82;;;4.62;;
65665;SDS011;52365;47.464;18.976;2023-08-06T02:10:50;5.70;;;4.53;;
65665;SDS011;52365;47.464;18.976;2023-08-06T02:11:11;7.10;;;4.68;;
65665;SDS011;52365;47.464;18.976;2023-08-06T02:11:32;6.45;;;4.30;;
65665;SDS011;52365;47.464;18.976;2023-08-06T02:11:53;6.07;;;4.50;;
65665;SDS011;52365;47.464;18.976;2023-08-06T02:12:14;6.05;;;4.47;;
65665;SDS011;52365;47.464;18.976;2023-08-06T02:12:35;5.53;;;4.20;;
65665;SDS011;52365;47.464;18.976;2023-08-06T02:12:56;6.47;;;4.40;;
65665;SDS011;52365;47.464;18.976;2023-08-06T02:13:17;5.90;;;4.15;;
65665;SDS011;52365;47.464;18.976;2023-08-06T02:13:38;6.87;;;4.30;;
65665;SDS011;52365;47.464;18.976;2023-08-06T02:13:59;6.43;;;4.45;;
65665;SDS011;52365;47.464;18.976;2023-08-06T02:14:20;6.82;;;4.25;;
65665;SDS011;52365;47.464;18.976;2023-08-06T02:14:41;6.50;;;4.37;;
65665;SDS011;52365;47.464;18.976;2023-08-06T02:15:02;5.53;;;4.22;;
65665;SDS011;52365;47.464;18.976;2023-08-06T02:15:23;6.90;;;4.00;;
65665;SDS011;52365;47.464;18.976;2023-08-06T02:15:44;6.50;;;4.15;;
65665;SDS011;52365;47.464;18.976;2023-08-06T02:16:08;5.43;;;4.47;;